Jhang Weather



Jhang's Current Weather

Temprature 10.31o haze

haze

Rain: 0 %

Min Temprature10o
Max Temprature10.56o
Humidity87
Wind Speed3.6 m/h
Sun Rise07:04:05
Sun Set17:01:26
Current Time: 12-Dec-2019 01:28:39
Lat/Lon: 33.67, 72.7




Jhang's Geo Location



Jhang's Weather Forecast

Time Overall Temp Min Temp Max Temp Humidity Wind Speed Rain
12-Dec-2019 (Thu)
02:00:00 overcast clouds 9.850 9.850 10.960 59 2.76 m/h 0 %
05:00:00 overcast clouds 9.850 9.850 10.680 60 3.51 m/h 0 %
08:00:00 overcast clouds 10.770 10.770 11.330 61 0.93 m/h 0 %
11:00:00 overcast clouds 15.330 15.330 15.610 43 3.06 m/h 0 %
14:00:00 overcast clouds 17.180 17.180 17.180 37 0.78 m/h 0 %
17:00:00 overcast clouds 15.460 15.460 15.460 43 1.9 m/h 0 %
20:00:00 light rain 10.500 10.500 10.500 83 7.25 m/h 81 %
23:00:00 moderate rain 10.350 10.350 10.350 82 2.05 m/h 313 %
13-Dec-2019 (Fri)
02:00:00 moderate rain 10.010 10.010 10.010 89 2.27 m/h 456 %
05:00:00 light rain 9.960 9.960 9.960 87 2.63 m/h 188 %
08:00:00 light rain 9.900 9.900 9.900 87 2.45 m/h 63 %
11:00:00 light rain 11.110 11.110 11.110 78 2.35 m/h 6 %
14:00:00 overcast clouds 12.810 12.810 12.810 65 2.66 m/h 0 %
17:00:00 broken clouds 10.930 10.930 10.930 74 1.02 m/h 0 %
20:00:00 clear sky 9.550 9.550 9.550 79 0.73 m/h 0 %
23:00:00 clear sky 9.510 9.510 9.510 83 1.98 m/h 0 %
14-Dec-2019 (Sat)
02:00:00 clear sky 8.350 8.350 8.350 91 1.13 m/h 0 %
05:00:00 clear sky 7.590 7.590 7.590 91 0.83 m/h 0 %
08:00:00 few clouds 9.300 9.300 9.300 88 1.96 m/h 0 %
11:00:00 light rain 13.760 13.760 13.760 64 0.87 m/h 50 %
14:00:00 light rain 15.400 15.400 15.400 54 1.95 m/h 138 %
17:00:00 clear sky 13.210 13.210 13.210 63 2.02 m/h 0 %
20:00:00 clear sky 11.300 11.300 11.300 71 1.5 m/h 0 %
23:00:00 clear sky 10.310 10.310 10.310 74 1.45 m/h 0 %
15-Dec-2019 (Sun)
02:00:00 clear sky 9.620 9.620 9.620 74 2.37 m/h 0 %
05:00:00 clear sky 8.870 8.870 8.870 74 2.77 m/h 0 %
08:00:00 clear sky 9.230 9.230 9.230 77 3.22 m/h 0 %
11:00:00 clear sky 14.200 14.200 14.200 51 4.99 m/h 0 %
14:00:00 clear sky 16.240 16.240 16.240 39 4.96 m/h 0 %
17:00:00 clear sky 13.310 13.310 13.310 43 3.03 m/h 0 %
20:00:00 clear sky 11.210 11.210 11.210 44 1.89 m/h 0 %
23:00:00 clear sky 10.270 10.270 10.270 45 2.05 m/h 0 %
16-Dec-2019 (Mon)
02:00:00 clear sky 9.480 9.480 9.480 50 2.36 m/h 0 %
05:00:00 clear sky 8.550 8.550 8.550 58 2.74 m/h 0 %
08:00:00 clear sky 8.620 8.620 8.620 51 3.06 m/h 0 %
11:00:00 clear sky 13.880 13.880 13.880 32 4.68 m/h 0 %
14:00:00 clear sky 16.190 16.190 16.190 25 5.25 m/h 0 %
17:00:00 clear sky 13.140 13.140 13.140 29 3.73 m/h 0 %
20:00:00 clear sky 11.860 11.860 11.860 27 3.37 m/h 0 %
23:00:00 clear sky 10.580 10.580 10.580 29 4.17 m/h 0 %

Famous Cities (61)